Bei Facebook empfehlenBei Twitter postenGoogle plusPinterest

Das Wetter im Erzgebirge am 05.07.2016

Wetter und Klima am 05.07.2016 Holzhau im Erzgebirge (630m ü.NN)
Letzte gemessene Temperatur und Uhrzeit der Messung23:45:00 Uhr13.60 °C
Temperatur (Maximum / Höchstwert) und Uhrzeit der Messung15:45:00 Uhr23.80 °C
Temperatur (Minimum / Tiefstwert) und Uhrzeit der Messung01:30:008.10 °C
Errechneter Absolutwert der Temperaturschwankungen zwischen Tmin und Tmax des Tages15.70 K
Errechnete Tagesmitteltemperatur16.74583 °C
Gesamt - Niederschlag des Tages (in flüssiger Form)0.52 Liter / m²
Luftdruck (Maximum / Höchstwert) und Zeitpunkt der Messung00:00:00 Uhr1017.00 hPa
Luftdruck (Minimum / Tiefstwert) und Zeitpunkt der Messung23:15:00 Uhr1010.60 hPa
Errechneter Absolutwert der Luftdruckschwankungen des Tages6.40 hPa
Höchste gemessene Windgeschwindigkeit und Uhrzeit der Messung23:45:00 Uhr0.00 km/h
Errechnete Windhäufigkeit in Relation zu den Messwerten des Tages0.00000 %
Niedrigste Windkühle (Windchill) und Zeitpunkt der Messung01:30:00 Uhr8.10 °C
Taupunkt (Maximum / Höchstwert) und Uhrzeit der Messung13:00:00 Uhr15.80 °C
Taupunkt (Minimum / Tiefstwert) und Uhrzeit der Messung01:30:006.10 °C
Anzahl der automatisch eingelesenen Messwerte 96

Detaillierte Wetter- und Klima- Messwerte für den 05.07.2016 in Holzhau im Erzgebirge (630m ü.NN)
ZeitTemperaturLuftdruckRel. LuftfeuchteWindWindrichtungWindchillTaupunktNiederschlag l/m²
23:45:0013.60 °C1011.60 hPa83.00 %10.80 °C0.52
23:30:0012.80 °C1010.80 hPa80.00 %9.40 °C0.52
23:15:0012.80 °C1010.60 hPa78.00 %9.10 °C0.52
23:00:0013.20 °C1010.90 hPa77.00 %9.30 °C0.52
22:45:0013.60 °C1010.90 hPa76.00 %9.50 °C0.52
22:30:0014.10 °C1011.10 hPa75.00 %9.70 °C0.52
22:15:0014.40 °C1011.20 hPa74.00 %9.80 °C0.52
22:00:0014.90 °C1011.40 hPa72.00 %9.90 °C0.52
21:45:0015.60 °C1011.40 hPa71.00 %10.40 °C0.52
21:30:0016.60 °C1011.40 hPa68.00 %10.70 °C0.52
21:15:0017.40 °C1011.60 hPa67.00 %11.20 °C0.52
21:00:0017.90 °C1011.50 hPa65.00 %11.20 °C0.52
20:45:0018.50 °C1011.40 hPa63.00 %11.30 °C0.52
20:30:0019.20 °C1011.30 hPa62.00 %11.70 °C0.52
20:15:0019.90 °C1011.50 hPa61.00 %12.20 °C0.52
20:00:0020.30 °C1011.50 hPa59.00 %12.00 °C0.52
19:45:0020.60 °C1011.50 hPa57.00 %11.80 °C0.52
19:30:0021.40 °C1011.60 hPa57.00 %12.50 °C0.52
19:15:0021.80 °C1011.60 hPa56.00 %12.60 °C0.52
19:00:0021.90 °C1011.70 hPa56.00 %12.70 °C0.52
18:45:0022.20 °C1011.70 hPa55.00 %12.70 °C0.52
18:30:0022.50 °C1011.80 hPa54.00 %12.70 °C0.52
18:15:0022.90 °C1011.90 hPa53.00 %12.80 °C0.52
18:00:0023.10 °C1012.00 hPa53.00 %13.00 °C0.52
17:45:0023.10 °C1012.10 hPa52.00 %12.70 °C0.52
17:30:0023.10 °C1012.10 hPa52.00 %12.70 °C0.52
17:15:0023.30 °C1012.20 hPa51.00 %12.60 °C0.52
17:00:0023.20 °C1012.40 hPa51.00 %12.50 °C0.52
16:45:0023.50 °C1012.10 hPa50.00 %12.50 °C0.52
16:30:0023.40 °C1012.20 hPa52.00 %13.00 °C0.52
16:15:0023.60 °C1012.30 hPa51.00 %12.90 °C0.52
16:00:0023.70 °C1012.20 hPa53.00 %13.60 °C0.52
15:45:0023.80 °C1012.20 hPa52.00 %13.40 °C0.52
15:30:0023.60 °C1012.40 hPa52.00 %13.20 °C0.52
15:15:0023.40 °C1012.50 hPa55.00 %13.80 °C0.52
15:00:0023.80 °C1012.40 hPa54.00 %13.90 °C0.52
14:45:0023.80 °C1012.50 hPa59.00 %15.30 °C0.52
14:30:0023.10 °C1012.50 hPa58.00 %14.40 °C0.52
14:15:0022.50 °C1012.80 hPa60.00 %14.40 °C0.52
14:00:0021.90 °C1012.80 hPa65.00 %15.00 °C0.52
13:45:0021.80 °C1012.60 hPa62.00 %14.20 °C0.52
13:30:0022.70 °C1013.00 hPa61.00 %14.80 °C0.52
13:15:0023.40 °C1013.00 hPa61.00 %15.50 °C0.52
13:00:0023.20 °C1013.00 hPa63.00 %15.80 °C0.52
12:45:0023.30 °C1013.00 hPa61.00 %15.40 °C0.52
12:30:0023.50 °C1013.00 hPa62.00 %15.80 °C0.52
12:15:0022.80 °C1013.00 hPa64.00 %15.60 °C0.52
12:00:0023.10 °C1012.80 hPa63.00 %15.70 °C0.52
11:45:0022.40 °C1012.60 hPa65.00 %15.50 °C0.52
11:30:0021.10 °C1012.30 hPa66.00 %14.50 °C0.52
11:15:0021.80 °C1012.30 hPa64.00 %14.70 °C0.52
11:00:0021.60 °C1012.50 hPa66.00 %15.00 °C0.52
10:45:0021.50 °C1012.40 hPa67.00 %15.10 °C0.52
10:30:0020.60 °C1012.60 hPa68.00 %14.50 °C0.52
10:15:0020.80 °C1012.90 hPa68.00 %14.70 °C0.52
10:00:0020.40 °C1012.60 hPa72.00 %15.20 °C0.52
09:45:0019.60 °C1012.90 hPa75.00 %15.00 °C0.52
09:30:0018.90 °C1012.80 hPa80.00 %15.40 °C0.52
09:15:0017.50 °C1013.00 hPa84.00 %14.80 °C0.52
09:00:0016.60 °C1013.10 hPa88.00 %14.60 °C0.52
08:45:0015.60 °C1013.10 hPa91.00 %14.10 °C0.52
08:30:0014.40 °C1013.10 hPa92.00 %13.10 °C0.52
08:15:0013.40 °C1013.20 hPa92.00 %12.10 °C0.52
08:00:0012.60 °C1013.50 hPa91.00 %11.20 °C0.52
07:45:0011.80 °C1013.50 hPa91.00 %10.40 °C0.52
07:30:0011.30 °C1013.80 hPa90.00 %9.70 °C0.52
07:15:0011.10 °C1013.90 hPa89.00 %9.40 °C0.52
07:00:0010.90 °C1014.00 hPa89.00 %9.20 °C0.52
06:45:0010.80 °C1014.20 hPa88.00 %8.90 °C0.52
06:30:0010.90 °C1014.30 hPa86.00 %8.70 °C0.52
06:15:0011.30 °C1014.40 hPa85.00 %8.90 °C 
06:00:0011.80 °C1014.30 hPa84.00 %9.20 °C 
05:45:0011.60 °C1014.10 hPa84.00 %9.00 °C 
05:30:0011.60 °C1014.20 hPa84.00 %9.00 °C 
05:15:0011.60 °C1014.20 hPa84.00 %9.00 °C 
05:00:0011.50 °C1014.40 hPa85.00 %9.10 °C 
04:45:0011.40 °C1014.50 hPa85.00 %9.00 °C 
04:30:0011.30 °C1014.60 hPa86.00 %9.00 °C 
04:15:0011.00 °C1014.80 hPa87.00 %8.90 °C 
04:00:0010.80 °C1014.90 hPa87.00 %8.70 °C 
03:45:0010.40 °C1015.00 hPa88.00 %8.50 °C 
03:30:0010.10 °C1015.20 hPa89.00 %8.40 °C 
03:15:009.60 °C1015.40 hPa89.00 %7.90 °C 
03:00:009.10 °C1015.80 hPa89.00 %7.40 °C 
02:45:008.70 °C1015.80 hPa89.00 %7.00 °C 
02:30:008.40 °C1015.90 hPa89.00 %6.70 °C 
02:15:008.30 °C1016.10 hPa89.00 %6.60 °C 
02:00:008.40 °C1016.10 hPa88.00 %6.50 °C 
01:45:008.30 °C1016.20 hPa88.00 %6.40 °C 
01:30:008.10 °C1016.60 hPa87.00 %6.10 °C 
01:15:008.30 °C1016.50 hPa87.00 %6.30 °C 
01:00:008.30 °C1016.60 hPa87.00 %6.30 °C 
00:45:008.30 °C1016.70 hPa86.00 %6.10 °C 
00:30:008.50 °C1016.80 hPa86.00 %6.30 °C 
00:15:008.70 °C1016.90 hPa85.00 %6.30 °C 
00:00:008.80 °C1017.00 hPa85.00 %6.40 °C 

Permanenter Link zu dieser Seite: Wetter im Erzgebirge am 05.07.2016
Performance-Info: Die Erstellung der Seite / Statistik(en) / Tabelle(n) erforderte 5 Datenbankserver-Abfrage(n) und dauerte 101 Millisekunden. (Dieser Messwert ist von der Gesamt-Auslastung des Servers abhängig.)
Erzgebirge - Wetter | Erzgebirge - Wetter (Mobilgeräte) | Komplette Klimadatenbank